createdAt,value
2022-11-03T00:00:12.603Z,13.89
2022-11-03T00:01:09.124Z,13.83
2022-11-03T00:02:09.134Z,13.75
2022-11-03T00:03:09.548Z,13.79
2022-11-03T00:04:09.024Z,13.72
2022-11-03T00:05:08.978Z,13.74
2022-11-03T00:06:09.001Z,13.70
2022-11-03T00:07:08.941Z,13.67
2022-11-03T00:08:09.003Z,13.65
2022-11-03T00:09:08.919Z,13.60
2022-11-03T00:10:08.995Z,13.62
2022-11-03T00:11:08.893Z,13.53
2022-11-03T00:12:08.888Z,13.52
2022-11-03T00:13:09.145Z,13.52
2022-11-03T00:14:08.865Z,13.53
2022-11-03T00:15:08.856Z,13.49
2022-11-03T00:16:08.850Z,13.46
2022-11-03T00:17:08.833Z,13.46
2022-11-03T00:18:08.820Z,13.47
2022-11-03T00:19:09.412Z,13.44
2022-11-03T00:20:08.799Z,13.37
2022-11-03T00:21:08.780Z,13.35
2022-11-03T00:22:08.804Z,13.33
2022-11-03T00:23:08.955Z,13.28
2022-11-03T00:24:08.757Z,13.31
2022-11-03T00:25:08.743Z,13.28
2022-11-03T00:26:08.754Z,13.27
2022-11-03T00:27:08.738Z,13.16
2022-11-03T00:28:08.787Z,13.18
2022-11-03T00:29:08.696Z,13.15
2022-11-03T00:30:08.682Z,13.13
2022-11-03T00:31:08.674Z,13.09
2022-11-03T00:32:08.655Z,13.08
2022-11-03T00:33:08.954Z,13.01
2022-11-03T00:34:08.668Z,13.01
2022-11-03T00:35:08.627Z,12.97
2022-11-03T00:36:08.620Z,12.87
2022-11-03T00:37:08.623Z,12.87
2022-11-03T00:38:08.589Z,12.78
2022-11-03T00:39:08.583Z,12.83
2022-11-03T00:40:08.599Z,12.78
2022-11-03T00:41:08.561Z,12.70
2022-11-03T00:42:08.567Z,12.68
2022-11-03T00:43:08.805Z,12.70
2022-11-03T00:44:08.525Z,12.61
2022-11-03T00:45:08.505Z,12.62
2022-11-03T00:46:08.515Z,12.60
2022-11-03T00:47:08.505Z,12.62
2022-11-03T00:48:08.477Z,12.57
2022-11-03T00:49:08.486Z,12.60
2022-11-03T00:50:08.446Z,12.58
2022-11-03T00:51:08.439Z,12.60
2022-11-03T00:52:08.441Z,12.57
2022-11-03T00:53:08.717Z,12.53
2022-11-03T00:54:08.410Z,12.62
2022-11-03T00:55:08.395Z,12.58
2022-11-03T00:56:08.376Z,12.62
2022-11-03T00:57:08.373Z,12.61
2022-11-03T00:58:08.410Z,12.58
2022-11-03T00:59:08.350Z,12.57
2022-11-03T01:00:08.337Z,12.58
2022-11-03T01:01:08.368Z,12.62
2022-11-03T01:02:08.426Z,12.68
2022-11-03T01:03:08.520Z,12.62
2022-11-03T01:04:08.367Z,12.70
2022-11-03T01:05:08.280Z,12.73
2022-11-03T01:06:08.281Z,12.58
2022-11-03T01:07:08.259Z,12.65
2022-11-03T01:08:08.243Z,12.60
2022-11-03T01:09:08.235Z,12.58
2022-11-03T01:10:08.232Z,12.62
2022-11-03T01:11:08.209Z,12.61
2022-11-03T01:12:08.191Z,12.55
2022-11-03T01:13:08.633Z,12.60
2022-11-03T01:14:08.200Z,12.54
2022-11-03T01:15:08.160Z,12.55
2022-11-03T01:16:08.245Z,12.55
2022-11-03T01:17:08.135Z,12.57
2022-11-03T01:18:08.121Z,12.47
2022-11-03T01:19:08.133Z,12.47
2022-11-03T01:20:08.114Z,12.37
2022-11-03T01:21:08.100Z,12.39
2022-11-03T01:22:11.100Z,12.32
2022-11-03T01:23:08.404Z,12.31
2022-11-03T01:24:08.070Z,12.27
2022-11-03T01:25:08.049Z,12.28
2022-11-03T01:26:08.035Z,12.22
2022-11-03T01:27:08.029Z,12.15
2022-11-03T01:28:08.193Z,12.21
2022-11-03T01:29:07.999Z,12.15
2022-11-03T01:30:08.025Z,12.06
2022-11-03T01:31:07.977Z,12.07
2022-11-03T01:32:07.971Z,12.09
2022-11-03T01:33:08.481Z,11.97
2022-11-03T01:34:07.971Z,11.97
2022-11-03T01:35:07.938Z,11.95
2022-11-03T01:36:07.925Z,11.90
2022-11-03T01:37:07.916Z,11.84
2022-11-03T01:38:07.936Z,11.86
2022-11-03T01:39:07.892Z,11.83
2022-11-03T01:40:07.921Z,11.78
2022-11-03T01:41:07.864Z,11.77
2022-11-03T01:42:07.859Z,11.83
2022-11-03T01:43:08.147Z,11.78
2022-11-03T01:44:07.864Z,11.70
2022-11-03T01:45:07.827Z,11.68
2022-11-03T01:46:07.912Z,11.69
2022-11-03T01:47:07.817Z,11.73
2022-11-03T01:48:07.799Z,11.78
2022-11-03T01:49:07.781Z,11.72
2022-11-03T01:50:07.894Z,11.73
2022-11-03T01:51:07.754Z,11.80
2022-11-03T01:52:07.790Z,11.84
2022-11-03T01:53:08.210Z,11.91
2022-11-03T01:54:07.720Z,11.86
2022-11-03T01:55:07.706Z,11.88
2022-11-03T01:56:07.703Z,11.94
2022-11-03T01:57:07.681Z,11.97
2022-11-03T01:58:07.698Z,12.03
2022-11-03T01:59:07.663Z,12.03
2022-11-03T02:00:07.654Z,12.04
2022-11-03T02:01:07.707Z,12.00
2022-11-03T02:02:07.920Z,12.06
2022-11-03T02:03:08.114Z,12.13
2022-11-03T02:04:07.683Z,12.21
2022-11-03T02:05:07.591Z,12.15
2022-11-03T02:06:07.585Z,12.15
2022-11-03T02:07:07.573Z,12.29
2022-11-03T02:09:07.551Z,12.28
2022-11-03T02:10:07.593Z,12.29
2022-11-03T02:11:07.536Z,12.32
2022-11-03T02:12:07.516Z,12.32
2022-11-03T02:13:07.684Z,12.35
2022-11-03T02:14:07.498Z,12.35
2022-11-03T02:15:07.503Z,12.31
2022-11-03T02:16:07.484Z,12.43
2022-11-03T02:17:07.481Z,12.39
2022-11-03T02:18:07.471Z,12.42
2022-11-03T02:19:07.450Z,12.47
2022-11-03T02:20:07.430Z,12.49
2022-11-03T02:21:07.413Z,12.40
2022-11-03T02:22:07.436Z,12.46
2022-11-03T02:23:07.822Z,12.42
2022-11-03T02:24:07.374Z,12.43
2022-11-03T02:25:07.372Z,12.47
2022-11-03T02:26:07.355Z,12.54
2022-11-03T02:27:07.348Z,12.55
2022-11-03T02:28:07.452Z,12.53
2022-11-03T02:29:07.924Z,12.58
2022-11-03T02:30:07.326Z,12.54
2022-11-03T02:31:07.292Z,12.61
2022-11-03T02:32:07.294Z,12.61
2022-11-03T02:33:07.592Z,12.55
2022-11-03T02:34:07.297Z,12.67
2022-11-03T02:35:07.257Z,12.58
2022-11-03T02:36:07.245Z,12.57
2022-11-03T02:37:07.249Z,12.65
2022-11-03T02:38:07.223Z,12.58
2022-11-03T02:39:07.213Z,12.64
2022-11-03T02:40:07.234Z,12.58
2022-11-03T02:41:07.201Z,12.58
2022-11-03T02:42:07.177Z,12.76
2022-11-03T02:43:07.512Z,12.73
2022-11-03T02:44:07.196Z,12.70
2022-11-03T02:45:07.139Z,12.75
2022-11-03T02:46:07.265Z,12.72
2022-11-03T02:47:07.116Z,12.76
2022-11-03T02:48:07.103Z,12.78
2022-11-03T02:49:07.099Z,12.62
2022-11-03T02:50:07.120Z,12.75
2022-11-03T02:51:07.076Z,12.75
2022-11-03T02:52:07.074Z,12.72
2022-11-03T02:53:07.303Z,12.72
2022-11-03T02:54:07.036Z,12.72
2022-11-03T02:55:07.025Z,12.75
2022-11-03T02:56:07.010Z,12.72
2022-11-03T02:57:07.010Z,12.73
2022-11-03T02:58:07.033Z,12.76
2022-11-03T02:59:06.977Z,12.76
2022-11-03T03:00:06.966Z,12.93
2022-11-03T03:01:07.121Z,12.80
2022-11-03T03:02:07.149Z,12.80
2022-11-03T03:03:07.302Z,12.79
2022-11-03T03:04:07.050Z,12.79
2022-11-03T03:05:06.916Z,12.83
2022-11-03T03:06:06.939Z,12.79
2022-11-03T03:07:06.889Z,12.79
2022-11-03T03:08:06.937Z,12.76
2022-11-03T03:09:06.868Z,12.78
2022-11-03T03:10:06.904Z,12.79
2022-11-03T03:11:06.870Z,12.76
2022-11-03T03:12:06.825Z,12.76
2022-11-03T03:13:07.046Z,12.82
2022-11-03T03:14:06.810Z,12.76
2022-11-03T03:15:06.793Z,12.82
2022-11-03T03:16:06.837Z,12.82
2022-11-03T03:17:06.773Z,12.85
2022-11-03T03:18:06.762Z,12.90
2022-11-03T03:19:06.752Z,12.85
2022-11-03T03:20:06.733Z,12.85
2022-11-03T03:21:06.735Z,12.87
2022-11-03T03:22:06.776Z,12.94
2022-11-03T03:23:09.063Z,12.91
2022-11-03T03:24:06.694Z,12.86
2022-11-03T03:25:06.683Z,12.91
2022-11-03T03:26:06.666Z,12.93
2022-11-03T03:27:06.675Z,12.93
2022-11-03T03:28:06.660Z,12.94
2022-11-03T03:29:06.637Z,12.94
2022-11-03T03:30:06.625Z,12.93
2022-11-03T03:31:06.613Z,12.94
2022-11-03T03:32:06.626Z,12.93
2022-11-03T03:33:06.922Z,12.98
2022-11-03T03:34:23.691Z,12.94
2022-11-03T03:35:07.568Z,12.91
2022-11-03T03:36:06.551Z,12.90
2022-11-03T03:37:06.550Z,12.94
2022-11-03T03:38:06.933Z,12.90
2022-11-03T03:39:06.546Z,12.90
2022-11-03T03:40:06.546Z,12.94
2022-11-03T03:41:10.520Z,12.87
2022-11-03T03:42:06.485Z,12.94
2022-11-03T03:43:06.653Z,12.87
2022-11-03T03:44:06.463Z,12.79
2022-11-03T03:45:06.468Z,12.79
2022-11-03T03:46:06.470Z,12.80
2022-11-03T03:47:06.500Z,12.82
2022-11-03T03:48:06.601Z,12.78
2022-11-03T03:49:06.473Z,12.82
2022-11-03T03:50:06.397Z,12.82
2022-11-03T03:51:06.379Z,12.78
2022-11-03T03:52:06.402Z,12.85
2022-11-03T03:53:06.359Z,12.87
2022-11-03T03:54:06.371Z,12.87
2022-11-03T03:55:06.338Z,12.76
2022-11-03T03:56:06.425Z,12.85
2022-11-03T03:57:06.319Z,12.93
2022-11-03T03:58:06.745Z,12.85
2022-11-03T03:59:06.286Z,12.83
2022-11-03T04:00:06.279Z,12.83
2022-11-03T04:01:06.282Z,12.80
2022-11-03T04:02:06.465Z,12.76
2022-11-03T04:03:06.248Z,12.82
2022-11-03T04:04:06.253Z,12.86
2022-11-03T04:05:06.222Z,12.87
2022-11-03T04:06:06.213Z,12.91
2022-11-03T04:07:06.211Z,12.90
2022-11-03T04:08:06.515Z,12.90
2022-11-03T04:09:06.180Z,12.93
2022-11-03T04:10:06.236Z,12.94
2022-11-03T04:11:06.165Z,12.86
2022-11-03T04:12:06.142Z,12.85
2022-11-03T04:13:06.128Z,12.87
2022-11-03T04:14:06.170Z,12.83
2022-11-03T04:15:06.106Z,12.78
2022-11-03T04:16:06.132Z,12.83
2022-11-03T04:17:06.082Z,12.79
2022-11-03T04:18:06.464Z,12.85
2022-11-03T04:19:06.087Z,12.79
2022-11-03T04:20:06.049Z,12.79
2022-11-03T04:21:06.039Z,12.76
2022-11-03T04:22:06.042Z,12.75
2022-11-03T04:23:06.019Z,12.91
2022-11-03T04:24:06.022Z,12.73
2022-11-03T04:25:05.999Z,12.73
2022-11-03T04:26:06.006Z,12.83
2022-11-03T04:27:05.969Z,12.73
2022-11-03T04:28:06.294Z,12.75
2022-11-03T04:29:05.947Z,12.70
2022-11-03T04:30:05.962Z,12.72
2022-11-03T04:31:05.921Z,12.78
2022-11-03T04:32:05.926Z,12.67
2022-11-03T04:33:05.929Z,12.61
2022-11-03T04:34:05.914Z,12.60
2022-11-03T04:35:05.881Z,12.54
2022-11-03T04:36:05.877Z,12.65
2022-11-03T04:37:05.858Z,12.55
2022-11-03T04:38:06.290Z,12.61
2022-11-03T04:39:05.827Z,12.57
2022-11-03T04:40:05.863Z,12.55
2022-11-03T04:41:05.808Z,12.55
2022-11-03T04:42:05.830Z,12.53
2022-11-03T04:43:06.083Z,12.46
2022-11-03T04:44:05.774Z,12.47
2022-11-03T04:45:05.773Z,12.43
2022-11-03T04:46:05.801Z,12.47
2022-11-03T04:47:05.742Z,12.45
2022-11-03T04:48:05.726Z,12.45
2022-11-03T04:49:05.740Z,12.47
2022-11-03T04:50:05.712Z,12.37
2022-11-03T04:51:05.701Z,12.39
2022-11-03T04:52:05.717Z,12.42
2022-11-03T04:53:05.989Z,12.42
2022-11-03T04:54:05.663Z,12.43
2022-11-03T04:55:05.648Z,12.42
2022-11-03T04:56:07.501Z,12.39
2022-11-03T04:57:05.627Z,12.40
2022-11-03T04:58:05.670Z,12.31
2022-11-03T04:59:05.603Z,12.35
2022-11-03T05:00:05.587Z,12.28
2022-11-03T05:01:05.627Z,12.37
2022-11-03T05:02:05.685Z,12.36
2022-11-03T05:03:05.556Z,12.40
2022-11-03T05:04:05.600Z,12.42
2022-11-03T05:05:05.533Z,12.40
2022-11-03T05:06:05.525Z,12.43
2022-11-03T05:07:05.508Z,12.43
2022-11-03T05:08:05.543Z,12.39
2022-11-03T05:09:05.492Z,12.39
2022-11-03T05:10:05.491Z,12.42
2022-11-03T05:11:05.470Z,12.42
2022-11-03T05:12:05.455Z,12.47
2022-11-03T05:13:05.781Z,12.50
2022-11-03T05:14:05.455Z,12.37
2022-11-03T05:15:05.418Z,12.43
2022-11-03T05:16:05.456Z,12.45
2022-11-03T05:17:05.411Z,12.43
2022-11-03T05:18:05.385Z,12.43
2022-11-03T05:19:05.424Z,12.45
2022-11-03T05:20:05.357Z,12.46
2022-11-03T05:21:05.349Z,12.46
2022-11-03T05:22:05.364Z,12.42
2022-11-03T05:23:05.866Z,12.45
2022-11-03T05:24:05.387Z,12.43
2022-11-03T05:25:05.309Z,12.45
2022-11-03T05:26:05.307Z,12.47
2022-11-03T05:27:05.278Z,12.43
2022-11-03T05:28:05.741Z,12.49
2022-11-03T05:29:05.262Z,12.47
2022-11-03T05:30:05.279Z,12.45
2022-11-03T05:31:05.235Z,12.49
2022-11-03T05:32:05.235Z,12.43
2022-11-03T05:33:05.209Z,12.45
2022-11-03T05:34:05.369Z,12.45
2022-11-03T05:35:05.194Z,12.43
2022-11-03T05:36:05.176Z,12.40
2022-11-03T05:37:05.170Z,12.40
2022-11-03T05:38:05.514Z,12.39
2022-11-03T05:39:05.141Z,12.43
2022-11-03T05:40:05.186Z,12.35
2022-11-03T05:41:05.118Z,12.42
2022-11-03T05:42:05.110Z,12.42
2022-11-03T05:43:09.716Z,12.39
2022-11-03T05:44:06.110Z,12.40
2022-11-03T05:45:05.076Z,12.39
2022-11-03T05:46:08.174Z,12.40
2022-11-03T05:47:07.458Z,12.36
2022-11-03T05:48:05.391Z,12.39
2022-11-03T05:49:05.034Z,12.32
2022-11-03T05:50:05.049Z,12.35
2022-11-03T05:51:05.082Z,12.39
2022-11-03T05:52:05.002Z,12.40
2022-11-03T05:53:04.973Z,12.35
2022-11-03T05:54:04.977Z,12.40
2022-11-03T05:55:04.954Z,12.42
2022-11-03T05:56:04.954Z,12.31
2022-11-03T05:57:04.935Z,12.28
2022-11-03T05:58:05.326Z,12.39
2022-11-03T05:59:04.910Z,12.42
2022-11-03T06:00:04.924Z,12.35
2022-11-03T06:01:04.892Z,12.37
2022-11-03T06:02:05.001Z,12.39
2022-11-03T06:03:04.866Z,12.36
2022-11-03T06:04:04.911Z,12.35
2022-11-03T06:05:04.839Z,12.35
2022-11-03T06:06:04.833Z,12.42
2022-11-03T06:07:04.831Z,12.39
2022-11-03T06:08:05.193Z,12.42
2022-11-03T06:09:04.811Z,12.27
2022-11-03T06:10:04.844Z,12.31
2022-11-03T06:11:04.784Z,12.32
2022-11-03T06:12:04.764Z,12.39
2022-11-03T06:13:05.200Z,12.28
2022-11-03T06:14:04.740Z,12.36
2022-11-03T06:15:04.737Z,12.40
2022-11-03T06:16:04.732Z,12.46
2022-11-03T06:17:04.710Z,12.28
2022-11-03T06:18:04.729Z,12.31
2022-11-03T06:19:04.725Z,12.40
2022-11-03T06:20:04.671Z,12.37
2022-11-03T06:21:04.658Z,12.37
2022-11-03T06:22:04.680Z,12.43
2022-11-03T06:23:05.056Z,12.43
2022-11-03T06:24:04.692Z,12.43
2022-11-03T06:25:04.634Z,12.42
2022-11-03T06:26:04.603Z,12.42
2022-11-03T06:27:04.590Z,12.47
2022-11-03T06:28:04.643Z,12.53
2022-11-03T06:29:04.566Z,12.53
2022-11-03T06:30:04.551Z,12.53
2022-11-03T06:31:04.551Z,12.49
2022-11-03T06:32:04.529Z,12.57
2022-11-03T06:33:04.820Z,12.50
2022-11-03T06:34:04.723Z,12.50
2022-11-03T06:35:04.522Z,12.60
2022-11-03T06:36:04.516Z,12.58
2022-11-03T06:37:06.430Z,12.54
2022-11-03T06:38:04.460Z,12.60
2022-11-03T06:39:04.458Z,12.58
2022-11-03T06:40:04.458Z,12.60
2022-11-03T06:41:04.442Z,12.57
2022-11-03T06:42:04.612Z,12.61
2022-11-03T06:43:04.874Z,12.55
2022-11-03T06:44:04.388Z,12.54
2022-11-03T06:45:04.389Z,12.53
2022-11-03T06:46:04.450Z,12.58
2022-11-03T06:47:04.413Z,12.61
2022-11-03T06:48:04.393Z,12.60
2022-11-03T06:49:04.360Z,12.54
2022-11-03T06:50:04.350Z,12.58
2022-11-03T06:51:04.315Z,12.55
2022-11-03T06:52:04.317Z,12.57
2022-11-03T06:53:04.668Z,12.61
2022-11-03T06:54:04.283Z,12.61
2022-11-03T06:55:04.352Z,12.70
2022-11-03T06:56:04.254Z,12.78
2022-11-03T06:57:04.263Z,12.76
2022-11-03T06:58:04.307Z,12.73
2022-11-03T06:59:04.226Z,12.73
2022-11-03T07:00:32.527Z,12.78
2022-11-03T07:01:05.316Z,12.78
2022-11-03T07:02:04.320Z,12.73
2022-11-03T07:03:04.455Z,12.73
2022-11-03T07:04:04.176Z,12.75
2022-11-03T07:05:04.178Z,12.90
2022-11-03T07:06:04.214Z,12.85
2022-11-03T07:07:04.136Z,12.79
2022-11-03T07:08:04.124Z,12.72
2022-11-03T07:09:05.056Z,12.85
2022-11-03T07:10:04.136Z,12.78
2022-11-03T07:11:04.112Z,12.76
2022-11-03T07:12:04.072Z,12.73
2022-11-03T07:13:07.055Z,12.72
2022-11-03T07:14:04.069Z,12.73
2022-11-03T07:16:04.060Z,12.83
2022-11-03T07:17:04.024Z,12.80
2022-11-03T07:18:04.200Z,12.86
2022-11-03T07:19:04.010Z,12.83
2022-11-03T07:20:03.982Z,12.86
2022-11-03T07:21:04.001Z,12.80
2022-11-03T07:22:04.029Z,12.78
2022-11-03T07:23:03.983Z,12.78
2022-11-03T07:24:03.938Z,12.80
2022-11-03T07:25:03.927Z,12.79
2022-11-03T07:26:03.920Z,12.86
2022-11-03T07:27:03.906Z,12.90
2022-11-03T07:28:04.340Z,12.85
2022-11-03T07:29:03.880Z,12.91
2022-11-03T07:30:03.882Z,12.94
2022-11-03T07:31:03.860Z,12.95
2022-11-03T07:32:04.505Z,13.03
2022-11-03T07:33:03.848Z,13.00
2022-11-03T07:34:03.844Z,13.03
2022-11-03T07:35:03.811Z,13.03
2022-11-03T07:36:19.197Z,13.03
2022-11-03T07:37:04.860Z,12.98
2022-11-03T07:38:04.057Z,13.08
2022-11-03T07:39:03.803Z,13.15
2022-11-03T07:40:03.796Z,13.15
2022-11-03T07:41:03.747Z,13.16
2022-11-03T07:42:03.735Z,13.13
2022-11-03T07:43:03.724Z,13.22
2022-11-03T07:44:03.708Z,13.18
2022-11-03T07:45:03.699Z,13.18
2022-11-03T07:46:03.785Z,13.15
2022-11-03T07:47:03.681Z,13.16
2022-11-03T07:48:04.633Z,13.25
2022-11-03T07:49:03.652Z,13.37
2022-11-03T07:50:03.712Z,13.28
2022-11-03T07:51:04.527Z,13.31
2022-11-03T07:52:03.702Z,13.28
2022-11-03T07:53:03.699Z,13.31
2022-11-03T07:54:03.623Z,13.38
2022-11-03T07:55:03.587Z,13.39
2022-11-03T07:56:03.642Z,13.28
2022-11-03T07:57:03.569Z,13.38
2022-11-03T07:58:03.857Z,13.28
2022-11-03T07:59:03.544Z,13.30
2022-11-03T08:00:07.083Z,13.31
2022-11-03T08:01:04.559Z,13.27
2022-11-03T08:02:03.876Z,13.28
2022-11-03T08:03:03.738Z,13.33
2022-11-03T08:04:03.581Z,13.41
2022-11-03T08:05:03.471Z,13.42
2022-11-03T08:06:06.070Z,13.33
2022-11-03T08:07:03.532Z,13.49
2022-11-03T08:08:03.620Z,13.49
2022-11-03T08:09:03.488Z,13.44
2022-11-03T08:10:03.489Z,13.46
2022-11-03T08:11:03.537Z,13.49
2022-11-03T08:12:03.396Z,13.56
2022-11-03T08:13:04.270Z,13.59
2022-11-03T08:14:03.381Z,13.59
2022-11-03T08:15:03.372Z,13.62
2022-11-03T08:16:03.421Z,13.67
2022-11-03T08:17:03.335Z,13.62
2022-11-03T08:18:04.089Z,13.72
2022-11-03T08:19:03.321Z,13.68
2022-11-03T08:20:03.327Z,13.77
2022-11-03T08:21:03.293Z,13.81
2022-11-03T08:22:03.315Z,13.83
2022-11-03T08:23:24.700Z,13.74
2022-11-03T08:24:04.256Z,13.87
2022-11-03T08:25:03.249Z,13.79
2022-11-03T08:26:03.277Z,13.85
2022-11-03T08:27:03.219Z,13.93
2022-11-03T08:28:03.305Z,13.86
2022-11-03T08:29:03.216Z,13.87
2022-11-03T08:30:03.203Z,13.97
2022-11-03T08:31:08.028Z,14.08
2022-11-03T08:32:04.187Z,14.12
2022-11-03T08:33:03.354Z,14.18
2022-11-03T08:34:03.372Z,14.26
2022-11-03T08:35:03.156Z,14.35
2022-11-03T08:36:03.119Z,14.35
2022-11-03T08:37:03.115Z,14.40
2022-11-03T08:38:03.159Z,14.48
2022-11-03T08:39:03.087Z,14.50
2022-11-03T08:40:03.219Z,14.45
2022-11-03T08:41:03.105Z,14.44
2022-11-03T08:42:03.088Z,14.62
2022-11-03T08:43:03.046Z,14.65
2022-11-03T08:44:03.099Z,14.66
2022-11-03T08:45:03.022Z,14.62
2022-11-03T08:46:08.383Z,14.63
2022-11-03T08:47:04.078Z,14.72
2022-11-03T08:48:03.027Z,14.72
2022-11-03T08:49:03.543Z,14.70
2022-11-03T08:50:02.983Z,14.72
2022-11-03T08:51:03.567Z,14.79
2022-11-03T08:52:03.003Z,14.82
2022-11-03T08:53:02.930Z,14.79
2022-11-03T08:54:02.933Z,14.86
2022-11-03T08:55:02.908Z,14.92
2022-11-03T08:56:02.905Z,14.97
2022-11-03T08:57:02.898Z,14.91
2022-11-03T08:58:02.962Z,15.04
2022-11-03T08:59:02.861Z,15.00
2022-11-03T09:00:02.843Z,15.03
2022-11-03T09:01:02.880Z,15.25
2022-11-03T09:02:02.962Z,15.27
2022-11-03T09:03:02.816Z,15.42
2022-11-03T09:04:02.970Z,15.33
2022-11-03T09:05:02.787Z,15.43
2022-11-03T09:06:03.545Z,15.52
2022-11-03T09:07:02.786Z,15.51
2022-11-03T09:10:21.082Z,15.46
2022-11-03T09:11:03.784Z,15.35
2022-11-03T09:12:02.710Z,15.36
2022-11-03T09:13:02.695Z,15.39
2022-11-03T09:14:03.592Z,15.36
2022-11-03T09:15:02.684Z,15.46
2022-11-03T09:16:02.664Z,15.43
2022-11-03T09:18:02.644Z,15.55
2022-11-03T09:19:02.633Z,15.54
2022-11-03T09:20:02.642Z,15.52
2022-11-03T09:21:02.652Z,15.52
2022-11-03T09:22:02.592Z,15.57
2022-11-03T09:23:02.591Z,15.67
2022-11-03T09:24:02.579Z,15.61
2022-11-03T09:25:02.588Z,15.67
2022-11-03T09:26:02.548Z,15.64
2022-11-03T09:27:02.715Z,15.70
2022-11-03T09:28:02.626Z,15.59
2022-11-03T09:29:03.059Z,15.59
2022-11-03T09:30:14.291Z,15.57
2022-11-03T09:31:03.502Z,15.61
2022-11-03T09:32:02.489Z,15.55
2022-11-03T09:33:02.515Z,15.57
2022-11-03T09:34:02.527Z,15.55
2022-11-03T09:35:02.475Z,15.46
2022-11-03T09:36:03.044Z,15.49
2022-11-03T09:37:02.989Z,15.51
2022-11-03T09:38:02.417Z,15.44
2022-11-03T09:39:02.433Z,15.36
2022-11-03T09:40:02.399Z,15.33
2022-11-03T09:41:02.425Z,15.37
2022-11-03T09:42:02.371Z,15.37
2022-11-03T09:43:02.377Z,15.36
2022-11-03T09:44:03.116Z,15.28
2022-11-03T09:45:02.370Z,15.37
2022-11-03T09:46:02.553Z,15.29
2022-11-03T09:47:02.315Z,15.33
2022-11-03T09:48:02.316Z,15.35
2022-11-03T09:49:02.290Z,15.35
2022-11-03T09:50:02.287Z,15.33
2022-11-03T09:51:02.305Z,15.33
2022-11-03T09:52:02.257Z,15.25
2022-11-03T09:53:02.241Z,15.27
2022-11-03T09:54:02.265Z,15.35
2022-11-03T09:55:02.217Z,15.31
2022-11-03T09:56:02.210Z,15.29
2022-11-03T09:57:02.220Z,15.36
2022-11-03T09:58:03.211Z,15.25
2022-11-03T09:59:02.222Z,15.22
2022-11-03T10:00:03.087Z,15.29
2022-11-03T10:01:02.235Z,15.24
2022-11-03T10:02:03.319Z,15.19
2022-11-03T10:03:02.163Z,15.14
2022-11-03T10:04:02.112Z,15.11
2022-11-03T10:05:06.830Z,14.99
2022-11-03T10:06:03.095Z,14.99
2022-11-03T10:07:02.089Z,15.04
2022-11-03T10:08:02.157Z,15.03
2022-11-03T10:09:02.071Z,15.10
2022-11-03T10:10:02.050Z,15.11
2022-11-03T10:11:02.033Z,15.19
2022-11-03T10:12:02.028Z,15.25
2022-11-03T10:13:02.023Z,15.22
2022-11-03T10:14:02.000Z,15.25
2022-11-03T10:15:02.038Z,15.19
2022-11-03T10:16:01.977Z,15.39
2022-11-03T10:17:01.968Z,15.37
2022-11-03T10:18:01.999Z,15.39
2022-11-03T10:19:01.957Z,15.47
2022-11-03T10:20:01.957Z,15.54
2022-11-03T10:21:01.960Z,15.47
2022-11-03T10:22:01.914Z,15.54
2022-11-03T10:23:02.002Z,15.51
2022-11-03T10:24:01.928Z,15.58
2022-11-03T10:25:01.881Z,15.61
2022-11-03T10:26:01.879Z,15.57
2022-11-03T10:27:01.872Z,15.67
2022-11-03T10:28:01.840Z,15.75
2022-11-03T10:29:01.854Z,15.72
2022-11-03T10:30:01.822Z,15.75
2022-11-03T10:31:17.295Z,15.68
2022-11-03T10:32:02.869Z,15.76
2022-11-03T10:33:01.788Z,15.79
2022-11-03T10:34:01.809Z,15.83
2022-11-03T10:35:01.937Z,15.80
2022-11-03T10:36:02.570Z,15.91
2022-11-03T10:37:01.749Z,15.88
2022-11-03T10:38:01.770Z,15.91
2022-11-03T10:39:01.813Z,15.97
2022-11-03T10:40:01.704Z,16.00
2022-11-03T10:41:01.702Z,15.97
2022-11-03T10:42:01.774Z,16.09
2022-11-03T10:43:01.751Z,16.10
2022-11-03T10:44:01.822Z,16.05
2022-11-03T10:45:02.583Z,16.09
2022-11-03T10:46:01.650Z,16.12
2022-11-03T10:47:01.638Z,16.10
2022-11-03T10:48:01.674Z,16.13
2022-11-03T10:49:01.670Z,16.15
2022-11-03T10:50:01.749Z,16.23
2022-11-03T10:51:01.601Z,16.21
2022-11-03T10:52:01.571Z,16.28
2022-11-03T10:53:01.570Z,16.21
2022-11-03T10:54:01.561Z,16.38
2022-11-03T10:55:01.545Z,16.36
2022-11-03T10:56:01.576Z,16.36
2022-11-03T10:57:01.516Z,16.41
2022-11-03T10:58:01.508Z,16.50
2022-11-03T10:59:01.492Z,16.47
2022-11-03T11:00:01.484Z,16.57
2022-11-03T11:01:01.555Z,16.54
2022-11-03T11:02:01.751Z,16.57
2022-11-03T11:03:02.465Z,16.56
2022-11-03T11:04:02.256Z,16.58
2022-11-03T11:05:01.430Z,16.64
2022-11-03T11:06:01.438Z,16.61
2022-11-03T11:07:01.407Z,16.71
2022-11-03T11:08:03.249Z,16.68
2022-11-03T11:09:01.450Z,16.74
2022-11-03T11:10:01.367Z,16.76
2022-11-03T11:11:01.414Z,16.81
2022-11-03T11:12:01.342Z,16.81
2022-11-03T11:13:01.333Z,16.86
2022-11-03T11:14:01.356Z,16.86
2022-11-03T11:15:01.316Z,16.83
2022-11-03T11:16:01.299Z,16.90
2022-11-03T11:17:01.290Z,16.93
2022-11-03T11:18:01.274Z,16.99
2022-11-03T11:19:01.270Z,17.04
2022-11-03T11:20:01.279Z,17.01
2022-11-03T11:21:01.245Z,17.12
2022-11-03T11:22:01.353Z,17.15
2022-11-03T11:23:01.263Z,17.16
2022-11-03T11:24:01.205Z,17.16
2022-11-03T11:25:01.204Z,17.20
2022-11-03T11:26:01.246Z,17.20
2022-11-03T11:27:01.339Z,17.14
2022-11-03T11:28:01.163Z,17.20
2022-11-03T11:29:01.161Z,17.26
2022-11-03T11:30:01.234Z,17.27
2022-11-03T11:31:01.133Z,17.22
2022-11-03T11:32:01.136Z,17.26
2022-11-03T11:33:01.119Z,17.27
2022-11-03T11:34:01.095Z,17.20
2022-11-03T11:35:01.085Z,17.22
2022-11-03T11:36:01.067Z,17.29
2022-11-03T11:37:01.153Z,17.23
2022-11-03T11:38:01.133Z,17.24
2022-11-03T11:39:01.033Z,17.24
2022-11-03T11:40:01.055Z,17.31
2022-11-03T11:41:01.011Z,17.31
2022-11-03T11:42:01.009Z,17.31
2022-11-03T11:43:00.996Z,17.34
2022-11-03T11:44:01.029Z,17.42
2022-11-03T11:45:00.970Z,17.38
2022-11-03T11:46:00.957Z,17.41
2022-11-03T11:47:00.952Z,17.34
2022-11-03T11:48:00.956Z,17.41
2022-11-03T11:49:00.920Z,17.42
2022-11-03T11:50:00.954Z,17.41
2022-11-03T11:51:00.902Z,17.45
2022-11-03T11:52:00.890Z,17.44
2022-11-03T11:53:00.881Z,17.45
2022-11-03T11:54:17.014Z,17.44
2022-11-03T11:55:01.897Z,17.42
2022-11-03T11:56:00.841Z,17.54
2022-11-03T11:57:00.835Z,17.48
2022-11-03T11:58:00.822Z,17.46
2022-11-03T11:59:00.808Z,17.45
2022-11-03T12:00:00.817Z,17.46
2022-11-03T12:01:00.906Z,17.45
2022-11-03T12:02:03.709Z,17.52
2022-11-03T12:03:00.868Z,17.54
2022-11-03T12:04:00.954Z,17.56
2022-11-03T12:05:00.739Z,17.51
2022-11-03T12:06:00.736Z,17.63
2022-11-03T12:07:00.741Z,17.57
2022-11-03T12:08:00.703Z,17.67
2022-11-03T12:09:00.696Z,17.67
2022-11-03T12:10:00.777Z,17.71
2022-11-03T12:11:00.761Z,17.68
2022-11-03T12:12:05.233Z,17.72
2022-11-03T12:13:01.663Z,17.68
2022-11-03T12:14:00.648Z,17.68
2022-11-03T12:15:00.627Z,17.68
2022-11-03T12:16:00.624Z,17.72
2022-11-03T12:17:00.612Z,17.68
2022-11-03T12:18:00.589Z,17.76
2022-11-03T12:19:00.621Z,17.74
2022-11-03T12:20:00.570Z,17.71
2022-11-03T12:21:00.559Z,17.74
2022-11-03T12:22:00.548Z,17.76
2022-11-03T12:23:00.560Z,17.71
2022-11-03T12:24:00.527Z,17.76
2022-11-03T12:25:00.703Z,17.72
2022-11-03T12:26:00.529Z,17.70
2022-11-03T12:27:00.516Z,17.72
2022-11-03T12:28:01.097Z,17.68
2022-11-03T12:29:00.470Z,17.74
2022-11-03T12:30:00.464Z,17.72
2022-11-03T12:32:00.459Z,17.72
2022-11-03T12:33:00.458Z,17.67
2022-11-03T12:34:00.410Z,17.80
2022-11-03T12:35:01.110Z,17.79
2022-11-03T12:36:00.387Z,17.72
2022-11-03T12:37:00.432Z,17.67
2022-11-03T12:38:00.365Z,17.70
2022-11-03T12:39:00.356Z,17.71
2022-11-03T12:40:00.401Z,17.72
2022-11-03T12:41:00.334Z,17.71
2022-11-03T12:42:00.353Z,17.67
2022-11-03T12:43:00.361Z,17.79
2022-11-03T12:44:00.381Z,17.76
2022-11-03T12:45:00.296Z,17.72
2022-11-03T12:46:00.303Z,17.82
2022-11-03T12:47:00.270Z,17.80
2022-11-03T12:48:00.258Z,17.72
2022-11-03T12:49:00.270Z,17.70
2022-11-03T12:50:00.232Z,17.72
2022-11-03T12:51:00.216Z,17.71
2022-11-03T12:52:05.275Z,17.72
2022-11-03T12:53:01.198Z,17.67
2022-11-03T12:54:00.207Z,17.68
2022-11-03T12:55:00.191Z,17.67
2022-11-03T12:56:00.163Z,17.71
2022-11-03T12:57:00.143Z,17.72
2022-11-03T12:58:00.158Z,17.72